sensor_id;sensor_type;location;lat;lon;timestamp;pressure;altitude;pressure_sealevel;temperature;humidity
76590;BME280;65471;55.908;37.880;2023-08-08T00:01:29;99061.66;;;20.85;72.20
76590;BME280;65471;55.908;37.880;2023-08-08T00:03:56;99080.06;;;20.84;72.31
76590;BME280;65471;55.908;37.880;2023-08-08T00:06:24;99074.91;;;20.83;72.31
76590;BME280;65471;55.908;37.880;2023-08-08T00:08:51;99069.41;;;20.83;72.29
76590;BME280;65471;55.908;37.880;2023-08-08T00:11:18;99073.25;;;20.82;72.46
76590;BME280;65471;55.908;37.880;2023-08-08T00:13:45;99068.41;;;20.79;72.13
76590;BME280;65471;55.908;37.880;2023-08-08T00:16:12;99057.94;;;20.81;72.46
76590;BME280;65471;55.908;37.880;2023-08-08T00:18:39;99058.53;;;20.78;72.29
76590;BME280;65471;55.908;37.880;2023-08-08T00:21:06;99060.31;;;20.74;72.70
76590;BME280;65471;55.908;37.880;2023-08-08T00:23:33;99059.81;;;20.72;72.59
76590;BME280;65471;55.908;37.880;2023-08-08T00:26:00;99050.25;;;20.69;72.92
76590;BME280;65471;55.908;37.880;2023-08-08T00:28:27;99045.09;;;20.67;72.44
76590;BME280;65471;55.908;37.880;2023-08-08T00:30:54;99041.00;;;20.65;72.72
76590;BME280;65471;55.908;37.880;2023-08-08T00:33:21;99040.84;;;20.61;72.86
76590;BME280;65471;55.908;37.880;2023-08-08T00:35:47;99049.41;;;20.60;73.00
76590;BME280;65471;55.908;37.880;2023-08-08T00:38:14;99043.72;;;20.56;73.15
76590;BME280;65471;55.908;37.880;2023-08-08T00:40:43;99037.25;;;20.52;72.95
76590;BME280;65471;55.908;37.880;2023-08-08T00:43:09;99025.78;;;20.50;73.02
76590;BME280;65471;55.908;37.880;2023-08-08T00:45:37;99025.28;;;20.48;73.13
76590;BME280;65471;55.908;37.880;2023-08-08T00:48:04;99037.72;;;20.45;73.02
76590;BME280;65471;55.908;37.880;2023-08-08T00:50:32;99028.31;;;20.46;72.77
76590;BME280;65471;55.908;37.880;2023-08-08T00:52:58;99017.34;;;20.46;72.81
76590;BME280;65471;55.908;37.880;2023-08-08T00:55:26;99026.41;;;20.47;72.58
76590;BME280;65471;55.908;37.880;2023-08-08T00:57:53;99014.91;;;20.45;72.63
76590;BME280;65471;55.908;37.880;2023-08-08T01:00:20;99014.91;;;20.45;72.80
76590;BME280;65471;55.908;37.880;2023-08-08T01:02:47;99014.75;;;20.41;72.85
76590;BME280;65471;55.908;37.880;2023-08-08T01:05:14;99028.16;;;20.43;72.60
76590;BME280;65471;55.908;37.880;2023-08-08T01:07:55;99023.47;;;20.43;72.52
76590;BME280;65471;55.908;37.880;2023-08-08T01:10:33;99022.16;;;20.41;72.47
76590;BME280;65471;55.908;37.880;2023-08-08T01:13:06;99010.69;;;20.39;72.63
76590;BME280;65471;55.908;37.880;2023-08-08T01:15:36;99011.34;;;20.35;72.79
76590;BME280;65471;55.908;37.880;2023-08-08T01:18:08;99000.34;;;20.35;72.71
76590;BME280;65471;55.908;37.880;2023-08-08T01:20:37;99001.47;;;20.34;72.69
76590;BME280;65471;55.908;37.880;2023-08-08T01:25:41;98991.13;;;20.31;72.78
76590;BME280;65471;55.908;37.880;2023-08-08T01:28:08;98982.88;;;20.31;72.34
76590;BME280;65471;55.908;37.880;2023-08-08T01:30:36;98980.63;;;20.33;72.35
76590;BME280;65471;55.908;37.880;2023-08-08T01:33:03;98984.69;;;20.36;72.30
76590;BME280;65471;55.908;37.880;2023-08-08T01:35:33;98976.13;;;20.38;72.14
76590;BME280;65471;55.908;37.880;2023-08-08T01:40:40;98966.13;;;20.42;71.76
76590;BME280;65471;55.908;37.880;2023-08-08T01:43:10;98968.56;;;20.43;71.72
76590;BME280;65471;55.908;37.880;2023-08-08T01:45:38;98969.38;;;20.44;71.57
76590;BME280;65471;55.908;37.880;2023-08-08T01:48:09;98976.97;;;20.47;71.28
76590;BME280;65471;55.908;37.880;2023-08-08T01:50:37;98983.28;;;20.47;71.27
76590;BME280;65471;55.908;37.880;2023-08-08T01:53:04;98989.09;;;20.46;71.21
76590;BME280;65471;55.908;37.880;2023-08-08T01:55:31;98993.78;;;20.45;71.38
76590;BME280;65471;55.908;37.880;2023-08-08T01:57:58;98998.13;;;20.46;71.44
76590;BME280;65471;55.908;37.880;2023-08-08T02:00:25;98989.88;;;20.46;71.35
76590;BME280;65471;55.908;37.880;2023-08-08T02:02:53;98992.94;;;20.45;71.33
76590;BME280;65471;55.908;37.880;2023-08-08T02:05:20;98980.53;;;20.47;70.97
76590;BME280;65471;55.908;37.880;2023-08-08T02:07:47;98978.91;;;20.46;71.11
76590;BME280;65471;55.908;37.880;2023-08-08T02:10:14;98980.53;;;20.47;71.18
76590;BME280;65471;55.908;37.880;2023-08-08T02:12:41;98986.03;;;20.47;71.11
76590;BME280;65471;55.908;37.880;2023-08-08T02:15:08;98975.53;;;20.49;71.12
76590;BME280;65471;55.908;37.880;2023-08-08T02:17:37;98990.88;;;20.50;71.08
76590;BME280;65471;55.908;37.880;2023-08-08T02:20:06;98986.22;;;20.51;71.19
76590;BME280;65471;55.908;37.880;2023-08-08T02:22:33;98977.47;;;20.49;70.95
76590;BME280;65471;55.908;37.880;2023-08-08T02:25:00;98976.34;;;20.50;70.68
76590;BME280;65471;55.908;37.880;2023-08-08T02:27:30;98976.50;;;20.53;70.49
76590;BME280;65471;55.908;37.880;2023-08-08T02:29:57;98978.44;;;20.53;70.14
76590;BME280;65471;55.908;37.880;2023-08-08T02:32:24;98980.72;;;20.51;70.26
76590;BME280;65471;55.908;37.880;2023-08-08T02:34:51;98976.03;;;20.51;70.23
76590;BME280;65471;55.908;37.880;2023-08-08T02:37:18;98982.81;;;20.54;70.16
76590;BME280;65471;55.908;37.880;2023-08-08T02:39:45;98978.13;;;20.55;70.18
76590;BME280;65471;55.908;37.880;2023-08-08T02:42:12;98974.06;;;20.52;70.43
76590;BME280;65471;55.908;37.880;2023-08-08T02:44:39;98975.69;;;20.53;70.77
76590;BME280;65471;55.908;37.880;2023-08-08T02:47:06;98973.28;;;20.51;70.75
76590;BME280;65471;55.908;37.880;2023-08-08T02:49:33;98966.66;;;20.52;71.15
76590;BME280;65471;55.908;37.880;2023-08-08T02:52:01;98967.78;;;20.51;71.11
76590;BME280;65471;55.908;37.880;2023-08-08T02:54:28;98958.44;;;20.52;71.51
76590;BME280;65471;55.908;37.880;2023-08-08T02:56:55;98966.03;;;20.56;71.28
76590;BME280;65471;55.908;37.880;2023-08-08T02:59:22;98971.66;;;20.59;71.20
76590;BME280;65471;55.908;37.880;2023-08-08T03:01:49;98972.19;;;20.61;70.99
76590;BME280;65471;55.908;37.880;2023-08-08T03:04:16;98973.16;;;20.65;70.58
76590;BME280;65471;55.908;37.880;2023-08-08T03:06:43;98971.44;;;20.69;70.52
76590;BME280;65471;55.908;37.880;2023-08-08T03:09:10;98969.16;;;20.72;70.73
76590;BME280;65471;55.908;37.880;2023-08-08T03:11:37;98970.78;;;20.73;70.55
76590;BME280;65471;55.908;37.880;2023-08-08T03:14:08;98983.69;;;20.72;71.07
76590;BME280;65471;55.908;37.880;2023-08-08T03:16:35;98973.69;;;20.67;71.62
76590;BME280;65471;55.908;37.880;2023-08-08T03:19:02;98977.53;;;20.66;71.24
76590;BME280;65471;55.908;37.880;2023-08-08T03:21:29;98977.53;;;20.66;71.22
76590;BME280;65471;55.908;37.880;2023-08-08T03:23:57;98971.44;;;20.69;70.89
76590;BME280;65471;55.908;37.880;2023-08-08T03:26:24;98980.16;;;20.72;70.76
76590;BME280;65471;55.908;37.880;2023-08-08T03:28:51;98972.41;;;20.74;70.71
76590;BME280;65471;55.908;37.880;2023-08-08T03:31:20;98964.66;;;20.76;70.68
76590;BME280;65471;55.908;37.880;2023-08-08T03:33:47;98964.31;;;20.77;70.67
76590;BME280;65471;55.908;37.880;2023-08-08T03:36:15;98966.75;;;20.79;70.55
76590;BME280;65471;55.908;37.880;2023-08-08T03:38:42;98969.19;;;20.80;70.82
76590;BME280;65471;55.908;37.880;2023-08-08T03:41:13;98968.38;;;20.80;70.93
76590;BME280;65471;55.908;37.880;2023-08-08T03:43:40;98983.25;;;20.88;70.87
76590;BME280;65471;55.908;37.880;2023-08-08T03:46:07;98988.28;;;20.94;70.41
76590;BME280;65471;55.908;37.880;2023-08-08T03:48:34;98992.50;;;21.00;69.78
76590;BME280;65471;55.908;37.880;2023-08-08T03:51:01;98991.22;;;21.07;69.86
76590;BME280;65471;55.908;37.880;2023-08-08T03:53:29;98983.47;;;21.09;69.67
76590;BME280;65471;55.908;37.880;2023-08-08T03:55:56;98988.16;;;21.17;70.06
76590;BME280;65471;55.908;37.880;2023-08-08T03:58:23;98991.91;;;21.21;69.71
76590;BME280;65471;55.908;37.880;2023-08-08T04:00:49;98992.88;;;21.25;70.23
76590;BME280;65471;55.908;37.880;2023-08-08T04:03:18;98992.22;;;21.28;70.26
76590;BME280;65471;55.908;37.880;2023-08-08T04:05:46;98991.09;;;21.29;70.54
76590;BME280;65471;55.908;37.880;2023-08-08T04:08:14;98998.69;;;21.32;69.97
76590;BME280;65471;55.908;37.880;2023-08-08T04:10:42;99006.94;;;21.24;70.29
76590;BME280;65471;55.908;37.880;2023-08-08T04:13:09;99005.47;;;21.26;69.96
76590;BME280;65471;55.908;37.880;2023-08-08T04:15:37;99010.34;;;21.29;69.72
76590;BME280;65471;55.908;37.880;2023-08-08T04:18:04;98998.69;;;21.32;69.62
76590;BME280;65471;55.908;37.880;2023-08-08T04:20:33;99005.78;;;21.33;69.85
76590;BME280;65471;55.908;37.880;2023-08-08T04:23:01;99002.91;;;21.30;70.50
76590;BME280;65471;55.908;37.880;2023-08-08T04:25:28;99003.03;;;21.25;70.13
76590;BME280;65471;55.908;37.880;2023-08-08T04:27:55;99005.47;;;21.26;70.13
76590;BME280;65471;55.908;37.880;2023-08-08T04:30:22;99000.63;;;21.23;70.46
76590;BME280;65471;55.908;37.880;2023-08-08T04:32:50;98998.50;;;21.20;70.06
76590;BME280;65471;55.908;37.880;2023-08-08T04:35:17;98995.13;;;21.23;69.68
76590;BME280;65471;55.908;37.880;2023-08-08T04:37:44;99003.03;;;21.25;69.68
76590;BME280;65471;55.908;37.880;2023-08-08T04:40:12;99001.91;;;21.26;70.07
76590;BME280;65471;55.908;37.880;2023-08-08T04:42:41;99007.75;;;21.24;70.47
76590;BME280;65471;55.908;37.880;2023-08-08T04:45:08;99002.88;;;21.21;70.81
76590;BME280;65471;55.908;37.880;2023-08-08T04:47:35;99009.03;;;21.18;71.27
76590;BME280;65471;55.908;37.880;2023-08-08T04:50:02;99003.53;;;21.18;71.29
76590;BME280;65471;55.908;37.880;2023-08-08T04:52:29;98999.97;;;21.17;71.32
76590;BME280;65471;55.908;37.880;2023-08-08T04:54:56;99003.53;;;21.18;71.67
76590;BME280;65471;55.908;37.880;2023-08-08T04:57:23;99004.00;;;21.20;71.54
76590;BME280;65471;55.908;37.880;2023-08-08T04:59:50;99000.63;;;21.23;71.42
76590;BME280;65471;55.908;37.880;2023-08-08T05:02:17;99009.84;;;21.27;71.89
76590;BME280;65471;55.908;37.880;2023-08-08T05:04:44;99000.94;;;21.30;72.02
76590;BME280;65471;55.908;37.880;2023-08-08T05:07:11;99005.00;;;21.33;71.68
76590;BME280;65471;55.908;37.880;2023-08-08T05:09:38;99002.75;;;21.35;71.73
76590;BME280;65471;55.908;37.880;2023-08-08T05:12:05;99008.53;;;21.33;72.60
76590;BME280;65471;55.908;37.880;2023-08-08T05:14:32;99013.09;;;21.29;72.98
76590;BME280;65471;55.908;37.880;2023-08-08T05:16:59;99013.41;;;21.28;72.87
76590;BME280;65471;55.908;37.880;2023-08-08T05:19:26;99018.09;;;21.27;72.99
76590;BME280;65471;55.908;37.880;2023-08-08T05:21:53;99021.00;;;21.22;73.35
76590;BME280;65471;55.908;37.880;2023-08-08T05:24:20;99025.53;;;21.18;74.26
76590;BME280;65471;55.908;37.880;2023-08-08T05:26:46;99026.16;;;21.15;74.45
76590;BME280;65471;55.908;37.880;2023-08-08T05:29:13;99023.56;;;21.10;74.90
76590;BME280;65471;55.908;37.880;2023-08-08T05:31:40;99024.03;;;21.03;75.42
76590;BME280;65471;55.908;37.880;2023-08-08T05:34:08;99022.25;;;20.98;75.69
76590;BME280;65471;55.908;37.880;2023-08-08T05:36:34;99020.16;;;20.95;76.01
76590;BME280;65471;55.908;37.880;2023-08-08T05:39:02;99012.53;;;20.92;76.46
76590;BME280;65471;55.908;37.880;2023-08-08T05:41:29;99012.22;;;20.85;77.38
76590;BME280;65471;55.908;37.880;2023-08-08T05:43:56;99018.31;;;20.82;77.85
76590;BME280;65471;55.908;37.880;2023-08-08T05:46:23;99015.88;;;20.80;78.04
76590;BME280;65471;55.908;37.880;2023-08-08T05:48:50;99020.06;;;20.78;79.22
76590;BME280;65471;55.908;37.880;2023-08-08T05:51:16;99016.84;;;20.76;79.56
76590;BME280;65471;55.908;37.880;2023-08-08T05:53:43;99005.53;;;20.77;79.85
76590;BME280;65471;55.908;37.880;2023-08-08T05:56:11;99004.09;;;20.80;79.81
76590;BME280;65471;55.908;37.880;2023-08-08T05:58:38;99002.47;;;20.79;80.25
76590;BME280;65471;55.908;37.880;2023-08-08T06:01:05;99015.09;;;20.80;80.42
76590;BME280;65471;55.908;37.880;2023-08-08T06:03:38;99019.78;;;20.79;80.76
76590;BME280;65471;55.908;37.880;2023-08-08T06:06:05;99023.81;;;20.82;80.55
76590;BME280;65471;55.908;37.880;2023-08-08T06:08:33;99023.81;;;20.82;80.87
76590;BME280;65471;55.908;37.880;2023-08-08T06:11:00;99026.75;;;20.85;81.03
76590;BME280;65471;55.908;37.880;2023-08-08T06:13:26;99032.41;;;20.89;81.55
76590;BME280;65471;55.908;37.880;2023-08-08T06:15:53;99024.00;;;20.94;81.39
76590;BME280;65471;55.908;37.880;2023-08-08T06:18:20;99016.75;;;20.98;81.34
76590;BME280;65471;55.908;37.880;2023-08-08T06:20:47;99023.56;;;21.01;81.64
76590;BME280;65471;55.908;37.880;2023-08-08T06:23:14;99035.19;;;20.98;81.56
76590;BME280;65471;55.908;37.880;2023-08-08T06:25:42;99031.47;;;20.94;81.50
76590;BME280;65471;55.908;37.880;2023-08-08T06:28:09;99026.13;;;20.97;81.54
76590;BME280;65471;55.908;37.880;2023-08-08T06:30:36;99024.34;;;21.01;81.80
76590;BME280;65471;55.908;37.880;2023-08-08T06:33:03;99029.38;;;21.08;82.01
76590;BME280;65471;55.908;37.880;2023-08-08T06:35:30;99026.78;;;21.12;82.00
76590;BME280;65471;55.908;37.880;2023-08-08T06:37:57;99028.28;;;21.18;82.02
76590;BME280;65471;55.908;37.880;2023-08-08T06:40:24;99040.09;;;21.27;82.10
76590;BME280;65471;55.908;37.880;2023-08-08T06:42:51;99031.53;;;21.37;81.67
76590;BME280;65471;55.908;37.880;2023-08-08T06:45:18;99030.72;;;21.46;81.47
76590;BME280;65471;55.908;37.880;2023-08-08T06:47:45;99033.31;;;21.51;80.94
76590;BME280;65471;55.908;37.880;2023-08-08T06:50:13;99028.84;;;21.55;80.73
76590;BME280;65471;55.908;37.880;2023-08-08T06:52:40;99031.25;;;21.65;80.51
76590;BME280;65471;55.908;37.880;2023-08-08T06:55:07;99029.16;;;21.71;80.02
76590;BME280;65471;55.908;37.880;2023-08-08T06:57:34;99026.53;;;21.75;79.36
76590;BME280;65471;55.908;37.880;2023-08-08T07:00:04;99026.38;;;21.80;79.26
76590;BME280;65471;55.908;37.880;2023-08-08T07:02:32;99032.53;;;21.85;78.88
76590;BME280;65471;55.908;37.880;2023-08-08T07:04:59;99040.63;;;21.91;78.67
76590;BME280;65471;55.908;37.880;2023-08-08T07:07:29;99037.56;;;21.92;78.63
76590;BME280;65471;55.908;37.880;2023-08-08T07:09:57;99028.63;;;21.95;78.14
76590;BME280;65471;55.908;37.880;2023-08-08T07:12:24;99046.75;;;22.14;77.86
76590;BME280;65471;55.908;37.880;2023-08-08T07:14:52;99044.75;;;22.23;77.74
76590;BME280;65471;55.908;37.880;2023-08-08T07:17:19;99044.94;;;22.35;77.48
76590;BME280;65471;55.908;37.880;2023-08-08T07:19:46;99038.59;;;22.44;77.57
76590;BME280;65471;55.908;37.880;2023-08-08T07:22:13;99029.66;;;22.47;77.65
76590;BME280;65471;55.908;37.880;2023-08-08T07:24:39;99029.00;;;22.50;77.45
76590;BME280;65471;55.908;37.880;2023-08-08T07:27:06;99036.59;;;22.53;77.54
76590;BME280;65471;55.908;37.880;2023-08-08T07:29:33;99039.84;;;22.55;77.30
76590;BME280;65471;55.908;37.880;2023-08-08T07:32:03;99038.06;;;22.59;76.96
76590;BME280;65471;55.908;37.880;2023-08-08T07:34:30;99040.31;;;22.57;76.30
76590;BME280;65471;55.908;37.880;2023-08-08T07:36:58;99048.91;;;22.55;76.31
76590;BME280;65471;55.908;37.880;2023-08-08T07:39:25;99053.31;;;22.56;75.85
76590;BME280;65471;55.908;37.880;2023-08-08T07:41:53;99055.72;;;22.58;75.42
76590;BME280;65471;55.908;37.880;2023-08-08T07:44:20;99050.38;;;22.53;75.57
76590;BME280;65471;55.908;37.880;2023-08-08T07:46:47;99055.44;;;22.51;75.28
76590;BME280;65471;55.908;37.880;2023-08-08T07:49:14;99064.16;;;22.53;74.84
76590;BME280;65471;55.908;37.880;2023-08-08T07:51:41;99056.72;;;22.53;74.81
76590;BME280;65471;55.908;37.880;2023-08-08T07:54:08;99056.84;;;22.57;74.84
76590;BME280;65471;55.908;37.880;2023-08-08T07:56:37;99055.06;;;22.61;75.12
76590;BME280;65471;55.908;37.880;2023-08-08T07:59:04;99054.22;;;22.69;75.78
76590;BME280;65471;55.908;37.880;2023-08-08T08:01:32;99059.22;;;22.76;75.68
76590;BME280;65471;55.908;37.880;2023-08-08T08:03:58;99058.19;;;22.89;74.06
76590;BME280;65471;55.908;37.880;2023-08-08T08:06:26;99055.03;;;23.00;73.72
76590;BME280;65471;55.908;37.880;2023-08-08T08:08:53;99059.88;;;23.03;73.65
76590;BME280;65471;55.908;37.880;2023-08-08T08:11:20;99050.97;;;23.06;73.76
76590;BME280;65471;55.908;37.880;2023-08-08T08:13:47;99053.72;;;23.06;72.75
76590;BME280;65471;55.908;37.880;2023-08-08T08:16:14;99047.22;;;23.10;71.84
76590;BME280;65471;55.908;37.880;2023-08-08T08:18:41;99049.66;;;23.12;71.38
76590;BME280;65471;55.908;37.880;2023-08-08T08:21:09;99049.00;;;23.15;71.19
76590;BME280;65471;55.908;37.880;2023-08-08T08:23:36;99051.97;;;23.31;71.65
76590;BME280;65471;55.908;37.880;2023-08-08T08:26:02;99054.13;;;23.47;71.01
76590;BME280;65471;55.908;37.880;2023-08-08T08:28:29;99049.41;;;23.68;70.33
76590;BME280;65471;55.908;37.880;2023-08-08T08:30:56;99051.75;;;23.87;69.21
76590;BME280;65471;55.908;37.880;2023-08-08T08:33:23;99058.50;;;23.90;68.93
76590;BME280;65471;55.908;37.880;2023-08-08T08:35:50;99052.38;;;23.84;69.05
76590;BME280;65471;55.908;37.880;2023-08-08T08:38:17;99049.91;;;23.91;67.98
76590;BME280;65471;55.908;37.880;2023-08-08T08:40:45;99048.06;;;23.95;67.70
76590;BME280;65471;55.908;37.880;2023-08-08T08:43:14;99048.66;;;24.01;68.25
76590;BME280;65471;55.908;37.880;2023-08-08T08:45:42;99057.53;;;23.94;67.90
76590;BME280;65471;55.908;37.880;2023-08-08T08:48:10;99058.78;;;23.97;67.47
76590;BME280;65471;55.908;37.880;2023-08-08T08:50:40;99054.66;;;24.03;68.00
76590;BME280;65471;55.908;37.880;2023-08-08T08:53:09;99060.31;;;24.07;67.65
76590;BME280;65471;55.908;37.880;2023-08-08T08:55:37;99058.72;;;24.06;67.19
76590;BME280;65471;55.908;37.880;2023-08-08T08:58:04;99061.34;;;24.02;67.97
76590;BME280;65471;55.908;37.880;2023-08-08T09:00:32;99064.97;;;23.94;68.48
76590;BME280;65471;55.908;37.880;2023-08-08T09:03:00;99066.72;;;23.77;68.88
76590;BME280;65471;55.908;37.880;2023-08-08T09:05:28;99064.66;;;23.74;69.41
76590;BME280;65471;55.908;37.880;2023-08-08T09:07:55;99061.41;;;23.72;70.00
76590;BME280;65471;55.908;37.880;2023-08-08T09:10:24;99067.59;;;23.69;70.81
76590;BME280;65471;55.908;37.880;2023-08-08T09:12:51;99064.84;;;23.69;70.98
76590;BME280;65471;55.908;37.880;2023-08-08T09:15:18;99059.66;;;23.68;71.28
76590;BME280;65471;55.908;37.880;2023-08-08T09:17:45;99066.38;;;23.58;71.38
76590;BME280;65471;55.908;37.880;2023-08-08T09:20:16;99076.13;;;23.55;71.72
76590;BME280;65471;55.908;37.880;2023-08-08T09:22:43;99078.03;;;23.42;73.26
76590;BME280;65471;55.908;37.880;2023-08-08T09:25:11;99083.66;;;23.25;74.43
76590;BME280;65471;55.908;37.880;2023-08-08T09:27:40;99087.59;;;23.15;75.33
76590;BME280;65471;55.908;37.880;2023-08-08T09:30:07;99087.13;;;23.13;76.23
76590;BME280;65471;55.908;37.880;2023-08-08T09:32:36;99094.75;;;23.07;76.94
76590;BME280;65471;55.908;37.880;2023-08-08T09:35:03;99096.84;;;23.10;76.84
76590;BME280;65471;55.908;37.880;2023-08-08T09:37:32;99091.16;;;23.16;77.30
76590;BME280;65471;55.908;37.880;2023-08-08T09:40:00;99090.69;;;23.14;77.72
76590;BME280;65471;55.908;37.880;2023-08-08T09:42:29;99088.56;;;23.10;78.19
76590;BME280;65471;55.908;37.880;2023-08-08T09:44:57;99092.63;;;23.04;79.18
76590;BME280;65471;55.908;37.880;2023-08-08T09:47:25;99097.25;;;22.91;79.58
76590;BME280;65471;55.908;37.880;2023-08-08T09:50:01;99095.81;;;22.85;80.93
76590;BME280;65471;55.908;37.880;2023-08-08T09:52:36;99099.50;;;22.98;81.64
76590;BME280;65471;55.908;37.880;2023-08-08T09:55:06;99094.44;;;23.09;81.70
76590;BME280;65471;55.908;37.880;2023-08-08T09:57:34;99090.38;;;23.06;81.60
76590;BME280;65471;55.908;37.880;2023-08-08T10:00:02;99092.44;;;23.18;81.31
76590;BME280;65471;55.908;37.880;2023-08-08T10:02:34;99102.97;;;23.25;81.13
76590;BME280;65471;55.908;37.880;2023-08-08T10:05:04;99096.78;;;23.28;81.11
76590;BME280;65471;55.908;37.880;2023-08-08T10:07:31;99101.34;;;23.24;80.70
76590;BME280;65471;55.908;37.880;2023-08-08T10:09:58;99106.06;;;23.23;80.56
76590;BME280;65471;55.908;37.880;2023-08-08T10:12:25;99102.81;;;23.21;80.61
76590;BME280;65471;55.908;37.880;2023-08-08T10:14:53;99104.44;;;23.22;79.95
76590;BME280;65471;55.908;37.880;2023-08-08T10:17:20;99103.75;;;23.25;80.21
76590;BME280;65471;55.908;37.880;2023-08-08T10:19:51;99108.47;;;23.25;80.04
76590;BME280;65471;55.908;37.880;2023-08-08T10:22:22;99112.75;;;23.14;80.61
76590;BME280;65471;55.908;37.880;2023-08-08T10:24:53;99110.13;;;23.08;81.26
76590;BME280;65471;55.908;37.880;2023-08-08T10:27:31;99116.31;;;23.05;81.43
76590;BME280;65471;55.908;37.880;2023-08-08T10:30:08;99111.16;;;23.04;81.47
76590;BME280;65471;55.908;37.880;2023-08-08T10:32:44;99124.25;;;23.07;81.50
76590;BME280;65471;55.908;37.880;2023-08-08T10:35:13;99115.06;;;23.12;81.16
76590;BME280;65471;55.908;37.880;2023-08-08T10:37:52;99119.00;;;23.23;80.78
76590;BME280;65471;55.908;37.880;2023-08-08T10:40:20;99121.59;;;23.28;80.61
76590;BME280;65471;55.908;37.880;2023-08-08T10:42:47;99115.47;;;23.22;80.50
76590;BME280;65471;55.908;37.880;2023-08-08T10:45:15;99113.72;;;23.18;80.87
76590;BME280;65471;55.908;37.880;2023-08-08T10:47:44;99115.34;;;23.19;80.63
76590;BME280;65471;55.908;37.880;2023-08-08T10:50:15;99113.84;;;23.21;80.57
76590;BME280;65471;55.908;37.880;2023-08-08T10:55:30;99110.66;;;23.40;79.61
76590;BME280;65471;55.908;37.880;2023-08-08T10:58:03;99117.47;;;23.43;79.29
76590;BME280;65471;55.908;37.880;2023-08-08T11:00:33;99119.22;;;23.48;79.38
76590;BME280;65471;55.908;37.880;2023-08-08T11:03:01;99125.06;;;23.46;78.46
76590;BME280;65471;55.908;37.880;2023-08-08T11:05:30;99134.94;;;23.47;77.41
76590;BME280;65471;55.908;37.880;2023-08-08T11:07:58;99125.88;;;23.47;77.05
76590;BME280;65471;55.908;37.880;2023-08-08T11:10:26;99125.88;;;23.47;76.64
76590;BME280;65471;55.908;37.880;2023-08-08T11:13:04;99130.25;;;23.48;76.42
76590;BME280;65471;55.908;37.880;2023-08-08T11:15:33;99132.53;;;23.46;76.17
76590;BME280;65471;55.908;37.880;2023-08-08T11:18:02;99136.44;;;23.44;76.47
76590;BME280;65471;55.908;37.880;2023-08-08T11:20:34;99134.16;;;23.47;76.36
76590;BME280;65471;55.908;37.880;2023-08-08T11:23:02;99133.00;;;23.48;76.72
76590;BME280;65471;55.908;37.880;2023-08-08T11:25:32;99133.00;;;23.48;77.26
76590;BME280;65471;55.908;37.880;2023-08-08T11:27:59;99135.78;;;23.48;77.18
76590;BME280;65471;55.908;37.880;2023-08-08T11:30:30;99125.06;;;23.46;76.83
76590;BME280;65471;55.908;37.880;2023-08-08T11:33:00;99134.34;;;23.41;76.97
76590;BME280;65471;55.908;37.880;2023-08-08T11:35:29;99136.78;;;23.43;77.00
76590;BME280;65471;55.908;37.880;2023-08-08T11:37:58;99145.97;;;23.47;76.36
76590;BME280;65471;55.908;37.880;2023-08-08T11:40:27;99136.22;;;23.50;75.95
76590;BME280;65471;55.908;37.880;2023-08-08T11:42:55;99135.56;;;23.53;75.02
76590;BME280;65471;55.908;37.880;2023-08-08T11:45:26;99142.88;;;23.57;74.35
76590;BME280;65471;55.908;37.880;2023-08-08T11:47:55;99138.28;;;23.61;74.05
76590;BME280;65471;55.908;37.880;2023-08-08T11:50:24;99131.41;;;23.68;74.37
76590;BME280;65471;55.908;37.880;2023-08-08T11:52:53;99135.19;;;23.84;74.53
76590;BME280;65471;55.908;37.880;2023-08-08T11:55:27;99130.19;;;24.07;74.21
76590;BME280;65471;55.908;37.880;2023-08-08T11:57:55;99131.97;;;24.24;74.23
76590;BME280;65471;55.908;37.880;2023-08-08T12:00:29;99142.59;;;24.35;72.65
76590;BME280;65471;55.908;37.880;2023-08-08T12:02:58;99136.72;;;24.36;71.76
76590;BME280;65471;55.908;37.880;2023-08-08T12:05:27;99151.09;;;24.29;71.88
76590;BME280;65471;55.908;37.880;2023-08-08T12:07:54;99150.72;;;24.19;72.53
76590;BME280;65471;55.908;37.880;2023-08-08T12:10:22;99152.38;;;24.11;73.47
76590;BME280;65471;55.908;37.880;2023-08-08T12:12:55;99150.84;;;24.01;73.92
76590;BME280;65471;55.908;37.880;2023-08-08T12:15:23;99144.38;;;23.97;73.80
76590;BME280;65471;55.908;37.880;2023-08-08T12:17:50;99143.91;;;23.95;73.41
76590;BME280;65471;55.908;37.880;2023-08-08T12:20:18;99146.00;;;23.98;73.60
76590;BME280;65471;55.908;37.880;2023-08-08T12:22:46;99146.81;;;23.99;73.33
76590;BME280;65471;55.908;37.880;2023-08-08T12:25:14;99148.41;;;24.00;73.63
76590;BME280;65471;55.908;37.880;2023-08-08T12:27:41;99142.22;;;24.03;74.19
76590;BME280;65471;55.908;37.880;2023-08-08T12:30:08;99146.25;;;24.05;74.77
76590;BME280;65471;55.908;37.880;2023-08-08T12:32:35;99142.38;;;24.06;75.16
76590;BME280;65471;55.908;37.880;2023-08-08T12:35:02;99144.94;;;24.11;74.82
76590;BME280;65471;55.908;37.880;2023-08-08T12:37:30;99147.47;;;24.17;74.95
76590;BME280;65471;55.908;37.880;2023-08-08T12:39:57;99142.78;;;24.17;75.33
76590;BME280;65471;55.908;37.880;2023-08-08T12:42:24;99141.25;;;24.20;75.82
76590;BME280;65471;55.908;37.880;2023-08-08T12:44:53;99139.66;;;24.19;75.37
76590;BME280;65471;55.908;37.880;2023-08-08T12:47:20;99152.25;;;24.28;74.71
76590;BME280;65471;55.908;37.880;2023-08-08T12:49:47;99142.47;;;24.31;74.52
76590;BME280;65471;55.908;37.880;2023-08-08T12:52:15;99145.03;;;24.36;74.14
76590;BME280;65471;55.908;37.880;2023-08-08T12:54:42;99144.22;;;24.36;73.81
76590;BME280;65471;55.908;37.880;2023-08-08T12:57:09;99143.88;;;24.37;73.16
76590;BME280;65471;55.908;37.880;2023-08-08T12:59:36;99141.13;;;24.37;73.52
76590;BME280;65471;55.908;37.880;2023-08-08T13:02:03;99141.78;;;24.34;73.93